sensor_id;sensor_type;location;lat;lon;timestamp;temperature;humidity
56308;DHT22;42217;50.422;7.210;2024-03-25T00:01:55;3.30;99.90
56308;DHT22;42217;50.422;7.210;2024-03-25T00:04:21;3.60;99.90
56308;DHT22;42217;50.422;7.210;2024-03-25T00:06:49;3.70;99.90
56308;DHT22;42217;50.422;7.210;2024-03-25T00:09:15;4.00;99.90
56308;DHT22;42217;50.422;7.210;2024-03-25T00:11:41;4.30;99.90
56308;DHT22;42217;50.422;7.210;2024-03-25T00:14:07;4.30;99.90
56308;DHT22;42217;50.422;7.210;2024-03-25T00:16:34;4.50;99.90
56308;DHT22;42217;50.422;7.210;2024-03-25T00:19:00;4.60;99.90
56308;DHT22;42217;50.422;7.210;2024-03-25T00:21:26;4.60;99.90
56308;DHT22;42217;50.422;7.210;2024-03-25T00:23:52;4.60;99.90
56308;DHT22;42217;50.422;7.210;2024-03-25T00:26:18;4.60;99.90
56308;DHT22;42217;50.422;7.210;2024-03-25T00:28:43;4.60;99.90
56308;DHT22;42217;50.422;7.210;2024-03-25T00:31:09;4.60;99.90
56308;DHT22;42217;50.422;7.210;2024-03-25T00:33:35;4.60;99.90
56308;DHT22;42217;50.422;7.210;2024-03-25T00:36:01;4.40;99.90
56308;DHT22;42217;50.422;7.210;2024-03-25T00:38:26;4.40;99.90
56308;DHT22;42217;50.422;7.210;2024-03-25T00:40:52;4.20;99.90
56308;DHT22;42217;50.422;7.210;2024-03-25T00:43:18;4.20;99.90
56308;DHT22;42217;50.422;7.210;2024-03-25T00:45:45;4.20;99.90
56308;DHT22;42217;50.422;7.210;2024-03-25T00:48:12;4.10;99.90
56308;DHT22;42217;50.422;7.210;2024-03-25T00:50:37;4.00;99.90
56308;DHT22;42217;50.422;7.210;2024-03-25T00:53:03;4.00;99.90
56308;DHT22;42217;50.422;7.210;2024-03-25T00:55:29;3.90;99.90
56308;DHT22;42217;50.422;7.210;2024-03-25T00:57:55;3.90;99.90
56308;DHT22;42217;50.422;7.210;2024-03-25T01:00:20;3.90;99.90
56308;DHT22;42217;50.422;7.210;2024-03-25T01:02:46;3.90;99.90
56308;DHT22;42217;50.422;7.210;2024-03-25T01:05:12;3.90;99.90
56308;DHT22;42217;50.422;7.210;2024-03-25T01:07:38;4.00;99.90
56308;DHT22;42217;50.422;7.210;2024-03-25T01:10:05;4.00;99.90
56308;DHT22;42217;50.422;7.210;2024-03-25T01:12:31;4.00;99.90
56308;DHT22;42217;50.422;7.210;2024-03-25T01:14:57;4.00;99.90
56308;DHT22;42217;50.422;7.210;2024-03-25T01:17:23;4.00;99.90
56308;DHT22;42217;50.422;7.210;2024-03-25T01:19:48;4.00;99.90
56308;DHT22;42217;50.422;7.210;2024-03-25T01:22:14;4.00;99.90
56308;DHT22;42217;50.422;7.210;2024-03-25T01:24:40;4.00;99.90
56308;DHT22;42217;50.422;7.210;2024-03-25T01:27:05;4.00;99.90
56308;DHT22;42217;50.422;7.210;2024-03-25T01:29:31;3.90;99.90
56308;DHT22;42217;50.422;7.210;2024-03-25T01:31:58;3.90;99.90
56308;DHT22;42217;50.422;7.210;2024-03-25T01:34:25;3.90;99.90
56308;DHT22;42217;50.422;7.210;2024-03-25T01:36:51;3.90;99.90
56308;DHT22;42217;50.422;7.210;2024-03-25T01:39:18;3.90;99.90
56308;DHT22;42217;50.422;7.210;2024-03-25T01:41:43;4.00;99.90
56308;DHT22;42217;50.422;7.210;2024-03-25T01:44:09;4.00;99.90
56308;DHT22;42217;50.422;7.210;2024-03-25T01:46:35;3.90;99.90
56308;DHT22;42217;50.422;7.210;2024-03-25T01:49:01;4.00;99.90
56308;DHT22;42217;50.422;7.210;2024-03-25T01:51:27;4.00;99.90
56308;DHT22;42217;50.422;7.210;2024-03-25T01:53:54;3.90;99.90
56308;DHT22;42217;50.422;7.210;2024-03-25T01:56:21;3.80;99.90
56308;DHT22;42217;50.422;7.210;2024-03-25T01:58:48;3.80;99.90
56308;DHT22;42217;50.422;7.210;2024-03-25T02:01:15;3.70;99.90
56308;DHT22;42217;50.422;7.210;2024-03-25T02:03:42;3.70;99.90
56308;DHT22;42217;50.422;7.210;2024-03-25T02:06:17;3.60;99.90
56308;DHT22;42217;50.422;7.210;2024-03-25T02:08:44;3.60;99.90
56308;DHT22;42217;50.422;7.210;2024-03-25T02:11:10;3.60;99.90
56308;DHT22;42217;50.422;7.210;2024-03-25T02:13:38;3.70;99.90
56308;DHT22;42217;50.422;7.210;2024-03-25T02:16:05;3.70;99.90
56308;DHT22;42217;50.422;7.210;2024-03-25T02:18:30;3.60;99.90
56308;DHT22;42217;50.422;7.210;2024-03-25T02:20:57;3.70;99.90
56308;DHT22;42217;50.422;7.210;2024-03-25T02:23:23;3.60;99.90
56308;DHT22;42217;50.422;7.210;2024-03-25T02:25:55;3.50;99.90
56308;DHT22;42217;50.422;7.210;2024-03-25T02:28:21;3.40;99.90
56308;DHT22;42217;50.422;7.210;2024-03-25T02:30:47;3.40;99.90
56308;DHT22;42217;50.422;7.210;2024-03-25T02:33:13;3.30;99.90
56308;DHT22;42217;50.422;7.210;2024-03-25T02:35:40;3.30;99.90
56308;DHT22;42217;50.422;7.210;2024-03-25T02:38:07;3.40;99.90
56308;DHT22;42217;50.422;7.210;2024-03-25T02:40:34;3.40;99.90
56308;DHT22;42217;50.422;7.210;2024-03-25T02:43:00;3.40;99.90
56308;DHT22;42217;50.422;7.210;2024-03-25T02:45:26;3.30;99.90
56308;DHT22;42217;50.422;7.210;2024-03-25T02:47:52;3.20;99.90
56308;DHT22;42217;50.422;7.210;2024-03-25T02:50:18;3.20;99.90
56308;DHT22;42217;50.422;7.210;2024-03-25T02:52:43;3.20;99.90
56308;DHT22;42217;50.422;7.210;2024-03-25T02:55:09;3.20;99.90
56308;DHT22;42217;50.422;7.210;2024-03-25T02:57:35;3.10;99.90
56308;DHT22;42217;50.422;7.210;2024-03-25T03:00:00;3.00;99.90
56308;DHT22;42217;50.422;7.210;2024-03-25T03:02:26;2.90;99.90
56308;DHT22;42217;50.422;7.210;2024-03-25T03:04:52;3.00;99.90
56308;DHT22;42217;50.422;7.210;2024-03-25T03:07:17;3.00;99.90
56308;DHT22;42217;50.422;7.210;2024-03-25T03:09:43;3.00;99.90
56308;DHT22;42217;50.422;7.210;2024-03-25T03:12:09;2.90;99.90
56308;DHT22;42217;50.422;7.210;2024-03-25T03:14:34;2.80;99.90
56308;DHT22;42217;50.422;7.210;2024-03-25T03:17:00;2.80;99.90
56308;DHT22;42217;50.422;7.210;2024-03-25T03:19:31;2.80;99.90
56308;DHT22;42217;50.422;7.210;2024-03-25T03:21:57;2.70;99.90
56308;DHT22;42217;50.422;7.210;2024-03-25T03:24:22;2.60;99.90
56308;DHT22;42217;50.422;7.210;2024-03-25T03:26:49;2.50;99.90
56308;DHT22;42217;50.422;7.210;2024-03-25T03:29:14;2.40;99.90
56308;DHT22;42217;50.422;7.210;2024-03-25T03:31:40;2.20;99.90
56308;DHT22;42217;50.422;7.210;2024-03-25T03:34:06;2.00;99.90
56308;DHT22;42217;50.422;7.210;2024-03-25T03:36:32;1.90;99.90
56308;DHT22;42217;50.422;7.210;2024-03-25T03:38:57;1.80;99.90
56308;DHT22;42217;50.422;7.210;2024-03-25T03:41:23;1.70;99.90
56308;DHT22;42217;50.422;7.210;2024-03-25T03:43:48;1.60;99.90
56308;DHT22;42217;50.422;7.210;2024-03-25T03:46:14;1.60;99.90
56308;DHT22;42217;50.422;7.210;2024-03-25T03:48:40;1.70;99.90
56308;DHT22;42217;50.422;7.210;2024-03-25T03:51:07;1.70;99.90
56308;DHT22;42217;50.422;7.210;2024-03-25T03:53:34;1.70;99.90
56308;DHT22;42217;50.422;7.210;2024-03-25T03:56:04;1.60;99.90
56308;DHT22;42217;50.422;7.210;2024-03-25T03:58:31;1.40;99.90
56308;DHT22;42217;50.422;7.210;2024-03-25T04:00:56;1.40;99.90
56308;DHT22;42217;50.422;7.210;2024-03-25T04:03:22;1.40;99.90
56308;DHT22;42217;50.422;7.210;2024-03-25T04:05:48;1.50;99.90
56308;DHT22;42217;50.422;7.210;2024-03-25T04:08:14;1.40;99.90
56308;DHT22;42217;50.422;7.210;2024-03-25T04:10:42;1.40;99.90
56308;DHT22;42217;50.422;7.210;2024-03-25T04:13:07;1.30;99.90
56308;DHT22;42217;50.422;7.210;2024-03-25T04:15:37;1.10;99.90
56308;DHT22;42217;50.422;7.210;2024-03-25T04:18:04;0.80;99.90
56308;DHT22;42217;50.422;7.210;2024-03-25T04:20:35;0.70;99.90
56308;DHT22;42217;50.422;7.210;2024-03-25T04:23:01;0.80;99.90
56308;DHT22;42217;50.422;7.210;2024-03-25T04:25:27;0.80;99.90
56308;DHT22;42217;50.422;7.210;2024-03-25T04:27:53;0.80;99.90
56308;DHT22;42217;50.422;7.210;2024-03-25T04:30:18;0.80;99.90
56308;DHT22;42217;50.422;7.210;2024-03-25T04:32:44;0.80;99.90
56308;DHT22;42217;50.422;7.210;2024-03-25T04:35:10;0.80;99.90
56308;DHT22;42217;50.422;7.210;2024-03-25T04:37:36;0.80;99.90
56308;DHT22;42217;50.422;7.210;2024-03-25T04:40:03;0.80;99.90
56308;DHT22;42217;50.422;7.210;2024-03-25T04:42:29;0.70;99.90
56308;DHT22;42217;50.422;7.210;2024-03-25T04:44:55;0.60;99.90
56308;DHT22;42217;50.422;7.210;2024-03-25T04:47:21;0.50;99.90
56308;DHT22;42217;50.422;7.210;2024-03-25T04:49:46;0.70;99.90
56308;DHT22;42217;50.422;7.210;2024-03-25T04:52:12;0.70;99.90
56308;DHT22;42217;50.422;7.210;2024-03-25T04:54:47;0.80;99.90
56308;DHT22;42217;50.422;7.210;2024-03-25T04:57:13;0.80;99.90
56308;DHT22;42217;50.422;7.210;2024-03-25T04:59:39;0.80;99.90
56308;DHT22;42217;50.422;7.210;2024-03-25T05:02:04;0.90;99.90
56308;DHT22;42217;50.422;7.210;2024-03-25T05:04:30;0.80;99.90
56308;DHT22;42217;50.422;7.210;2024-03-25T05:06:56;0.80;99.90
56308;DHT22;42217;50.422;7.210;2024-03-25T05:09:22;0.80;99.90
56308;DHT22;42217;50.422;7.210;2024-03-25T05:11:47;0.80;99.90
56308;DHT22;42217;50.422;7.210;2024-03-25T05:14:13;0.80;99.90
56308;DHT22;42217;50.422;7.210;2024-03-25T05:16:39;0.80;99.90
56308;DHT22;42217;50.422;7.210;2024-03-25T05:19:04;0.90;99.90
56308;DHT22;42217;50.422;7.210;2024-03-25T05:21:31;0.90;99.90
56308;DHT22;42217;50.422;7.210;2024-03-25T05:23:57;0.90;99.90
56308;DHT22;42217;50.422;7.210;2024-03-25T05:26:22;1.00;99.90
56308;DHT22;42217;50.422;7.210;2024-03-25T05:28:57;1.10;99.90
56308;DHT22;42217;50.422;7.210;2024-03-25T05:31:23;1.10;99.90
56308;DHT22;42217;50.422;7.210;2024-03-25T05:33:50;1.10;99.90
56308;DHT22;42217;50.422;7.210;2024-03-25T05:36:16;1.20;99.90
56308;DHT22;42217;50.422;7.210;2024-03-25T05:38:42;1.20;99.90
56308;DHT22;42217;50.422;7.210;2024-03-25T05:41:08;1.30;99.90
56308;DHT22;42217;50.422;7.210;2024-03-25T05:43:34;1.30;99.90
56308;DHT22;42217;50.422;7.210;2024-03-25T05:46:00;1.30;99.90
56308;DHT22;42217;50.422;7.210;2024-03-25T05:48:26;1.40;99.90
56308;DHT22;42217;50.422;7.210;2024-03-25T05:53:28;1.60;99.90
56308;DHT22;42217;50.422;7.210;2024-03-25T05:55:54;1.60;99.90
56308;DHT22;42217;50.422;7.210;2024-03-25T05:58:20;1.60;99.90
56308;DHT22;42217;50.422;7.210;2024-03-25T06:00:49;1.60;99.90
56308;DHT22;42217;50.422;7.210;2024-03-25T06:03:15;1.70;99.90
56308;DHT22;42217;50.422;7.210;2024-03-25T06:05:41;1.70;99.90
56308;DHT22;42217;50.422;7.210;2024-03-25T06:08:07;1.80;99.90
56308;DHT22;42217;50.422;7.210;2024-03-25T06:10:41;1.90;99.90
56308;DHT22;42217;50.422;7.210;2024-03-25T06:13:07;2.00;99.90
56308;DHT22;42217;50.422;7.210;2024-03-25T06:15:33;2.20;99.90
56308;DHT22;42217;50.422;7.210;2024-03-25T06:17:58;2.30;99.90
56308;DHT22;42217;50.422;7.210;2024-03-25T06:20:24;2.40;99.90
56308;DHT22;42217;50.422;7.210;2024-03-25T06:22:50;2.50;99.90
56308;DHT22;42217;50.422;7.210;2024-03-25T06:25:16;2.70;99.90
56308;DHT22;42217;50.422;7.210;2024-03-25T06:27:42;2.80;99.90
56308;DHT22;42217;50.422;7.210;2024-03-25T06:30:10;3.00;99.90
56308;DHT22;42217;50.422;7.210;2024-03-25T06:32:54;3.10;99.90
56308;DHT22;42217;50.422;7.210;2024-03-25T06:35:38;3.20;99.90
56308;DHT22;42217;50.422;7.210;2024-03-25T06:38:04;3.30;99.90
56308;DHT22;42217;50.422;7.210;2024-03-25T06:40:30;3.40;99.90
56308;DHT22;42217;50.422;7.210;2024-03-25T06:42:56;3.40;99.90
56308;DHT22;42217;50.422;7.210;2024-03-25T06:45:22;3.50;99.90
56308;DHT22;42217;50.422;7.210;2024-03-25T06:47:48;3.60;99.90
56308;DHT22;42217;50.422;7.210;2024-03-25T06:50:14;3.80;99.90
56308;DHT22;42217;50.422;7.210;2024-03-25T06:52:40;3.80;99.90
56308;DHT22;42217;50.422;7.210;2024-03-25T06:55:06;3.90;99.90
56308;DHT22;42217;50.422;7.210;2024-03-25T06:57:31;4.00;99.90
56308;DHT22;42217;50.422;7.210;2024-03-25T06:59:57;4.10;99.90
56308;DHT22;42217;50.422;7.210;2024-03-25T07:02:23;4.20;99.90
56308;DHT22;42217;50.422;7.210;2024-03-25T07:04:49;4.20;99.90
56308;DHT22;42217;50.422;7.210;2024-03-25T07:07:15;4.40;99.90
56308;DHT22;42217;50.422;7.210;2024-03-25T07:09:40;4.40;99.90
56308;DHT22;42217;50.422;7.210;2024-03-25T07:12:06;4.40;99.90
56308;DHT22;42217;50.422;7.210;2024-03-25T07:14:32;4.50;99.90
56308;DHT22;42217;50.422;7.210;2024-03-25T07:16:58;4.50;99.90
56308;DHT22;42217;50.422;7.210;2024-03-25T07:19:24;4.60;99.90
56308;DHT22;42217;50.422;7.210;2024-03-25T07:21:49;4.70;99.90
56308;DHT22;42217;50.422;7.210;2024-03-25T07:24:15;4.80;99.90
56308;DHT22;42217;50.422;7.210;2024-03-25T07:26:41;5.00;99.90
56308;DHT22;42217;50.422;7.210;2024-03-25T07:29:07;5.10;99.90
56308;DHT22;42217;50.422;7.210;2024-03-25T07:31:33;5.20;99.90
56308;DHT22;42217;50.422;7.210;2024-03-25T07:33:58;5.30;99.90
56308;DHT22;42217;50.422;7.210;2024-03-25T07:36:24;5.50;99.90
56308;DHT22;42217;50.422;7.210;2024-03-25T07:38:50;5.80;99.90
56308;DHT22;42217;50.422;7.210;2024-03-25T07:41:15;6.00;99.90
56308;DHT22;42217;50.422;7.210;2024-03-25T07:43:41;6.20;99.90
56308;DHT22;42217;50.422;7.210;2024-03-25T07:46:06;6.30;99.90
56308;DHT22;42217;50.422;7.210;2024-03-25T07:48:32;6.30;99.90
56308;DHT22;42217;50.422;7.210;2024-03-25T07:50:58;6.40;99.90
56308;DHT22;42217;50.422;7.210;2024-03-25T07:53:23;6.60;99.90
56308;DHT22;42217;50.422;7.210;2024-03-25T07:55:49;6.70;99.90
56308;DHT22;42217;50.422;7.210;2024-03-25T07:58:16;6.60;99.90
56308;DHT22;42217;50.422;7.210;2024-03-25T08:00:42;6.80;99.90
56308;DHT22;42217;50.422;7.210;2024-03-25T08:03:08;6.90;99.90
56308;DHT22;42217;50.422;7.210;2024-03-25T08:05:33;7.10;99.90
56308;DHT22;42217;50.422;7.210;2024-03-25T08:07:59;7.30;99.90
56308;DHT22;42217;50.422;7.210;2024-03-25T08:10:25;7.50;99.90
56308;DHT22;42217;50.422;7.210;2024-03-25T08:12:50;7.60;99.90
56308;DHT22;42217;50.422;7.210;2024-03-25T08:15:16;7.70;99.90
56308;DHT22;42217;50.422;7.210;2024-03-25T08:17:42;7.90;99.90
56308;DHT22;42217;50.422;7.210;2024-03-25T08:20:08;8.10;99.90
56308;DHT22;42217;50.422;7.210;2024-03-25T08:22:34;8.00;99.90
56308;DHT22;42217;50.422;7.210;2024-03-25T08:24:59;8.20;99.90
56308;DHT22;42217;50.422;7.210;2024-03-25T08:27:25;8.40;99.90
56308;DHT22;42217;50.422;7.210;2024-03-25T08:29:51;8.80;99.90
56308;DHT22;42217;50.422;7.210;2024-03-25T08:32:19;8.90;99.90
56308;DHT22;42217;50.422;7.210;2024-03-25T08:34:45;9.20;99.90
56308;DHT22;42217;50.422;7.210;2024-03-25T08:37:11;9.20;99.90
56308;DHT22;42217;50.422;7.210;2024-03-25T08:39:36;9.10;99.90
56308;DHT22;42217;50.422;7.210;2024-03-25T08:42:02;9.10;99.90
56308;DHT22;42217;50.422;7.210;2024-03-25T08:44:28;8.80;99.90
56308;DHT22;42217;50.422;7.210;2024-03-25T08:46:54;8.60;99.90
56308;DHT22;42217;50.422;7.210;2024-03-25T08:49:20;8.50;99.90
56308;DHT22;42217;50.422;7.210;2024-03-25T08:51:45;8.50;99.90
56308;DHT22;42217;50.422;7.210;2024-03-25T08:54:11;8.60;99.90
56308;DHT22;42217;50.422;7.210;2024-03-25T08:56:37;8.70;99.90
56308;DHT22;42217;50.422;7.210;2024-03-25T08:59:02;8.80;99.90
56308;DHT22;42217;50.422;7.210;2024-03-25T09:01:29;8.90;99.90
56308;DHT22;42217;50.422;7.210;2024-03-25T09:03:56;9.10;99.90
56308;DHT22;42217;50.422;7.210;2024-03-25T09:06:22;9.20;99.90
56308;DHT22;42217;50.422;7.210;2024-03-25T09:08:47;9.40;99.90
56308;DHT22;42217;50.422;7.210;2024-03-25T09:11:31;9.30;99.90
56308;DHT22;42217;50.422;7.210;2024-03-25T09:13:58;9.30;99.90
56308;DHT22;42217;50.422;7.210;2024-03-25T09:16:23;9.30;99.90
56308;DHT22;42217;50.422;7.210;2024-03-25T09:18:49;9.40;99.90
56308;DHT22;42217;50.422;7.210;2024-03-25T09:21:15;9.50;99.90
56308;DHT22;42217;50.422;7.210;2024-03-25T09:23:40;9.20;99.90
56308;DHT22;42217;50.422;7.210;2024-03-25T09:26:06;9.10;99.90
56308;DHT22;42217;50.422;7.210;2024-03-25T09:28:31;9.10;99.90
56308;DHT22;42217;50.422;7.210;2024-03-25T09:30:57;9.20;99.90
56308;DHT22;42217;50.422;7.210;2024-03-25T09:33:23;9.40;99.90
56308;DHT22;42217;50.422;7.210;2024-03-25T09:35:49;9.50;99.90
56308;DHT22;42217;50.422;7.210;2024-03-25T09:38:15;9.20;99.90
56308;DHT22;42217;50.422;7.210;2024-03-25T09:40:41;9.00;99.90
56308;DHT22;42217;50.422;7.210;2024-03-25T09:43:12;9.10;99.90
56308;DHT22;42217;50.422;7.210;2024-03-25T09:45:40;8.90;99.90
56308;DHT22;42217;50.422;7.210;2024-03-25T09:48:06;8.60;99.90
56308;DHT22;42217;50.422;7.210;2024-03-25T09:50:32;8.50;99.90
56308;DHT22;42217;50.422;7.210;2024-03-25T09:52:58;8.60;99.90
56308;DHT22;42217;50.422;7.210;2024-03-25T09:55:24;8.70;99.90
56308;DHT22;42217;50.422;7.210;2024-03-25T09:57:50;8.90;99.90
56308;DHT22;42217;50.422;7.210;2024-03-25T10:00:17;8.90;99.90
56308;DHT22;42217;50.422;7.210;2024-03-25T10:02:44;9.20;99.90
56308;DHT22;42217;50.422;7.210;2024-03-25T10:05:10;9.50;99.90
56308;DHT22;42217;50.422;7.210;2024-03-25T10:07:36;9.70;99.90
56308;DHT22;42217;50.422;7.210;2024-03-25T10:10:05;10.00;99.90
56308;DHT22;42217;50.422;7.210;2024-03-25T10:12:31;10.30;99.90
56308;DHT22;42217;50.422;7.210;2024-03-25T10:14:57;10.60;99.90
56308;DHT22;42217;50.422;7.210;2024-03-25T10:17:24;10.90;99.90
56308;DHT22;42217;50.422;7.210;2024-03-25T10:19:49;11.00;99.90
56308;DHT22;42217;50.422;7.210;2024-03-25T10:22:15;11.00;99.90
56308;DHT22;42217;50.422;7.210;2024-03-25T10:24:45;11.00;99.90
56308;DHT22;42217;50.422;7.210;2024-03-25T10:27:21;10.90;99.90
56308;DHT22;42217;50.422;7.210;2024-03-25T10:29:54;10.70;99.90
56308;DHT22;42217;50.422;7.210;2024-03-25T10:32:22;10.70;99.90
56308;DHT22;42217;50.422;7.210;2024-03-25T10:34:50;10.90;99.90
56308;DHT22;42217;50.422;7.210;2024-03-25T10:37:16;11.10;99.90
56308;DHT22;42217;50.422;7.210;2024-03-25T10:39:50;11.20;99.90
56308;DHT22;42217;50.422;7.210;2024-03-25T10:42:19;11.20;99.90
56308;DHT22;42217;50.422;7.210;2024-03-25T10:44:47;11.00;99.90
56308;DHT22;42217;50.422;7.210;2024-03-25T10:47:20;11.00;99.90
56308;DHT22;42217;50.422;7.210;2024-03-25T10:49:50;11.30;99.90
56308;DHT22;42217;50.422;7.210;2024-03-25T10:52:18;11.60;99.90
56308;DHT22;42217;50.422;7.210;2024-03-25T10:54:47;11.90;99.90
56308;DHT22;42217;50.422;7.210;2024-03-25T10:57:13;11.90;99.90
56308;DHT22;42217;50.422;7.210;2024-03-25T10:59:41;11.70;99.90
56308;DHT22;42217;50.422;7.210;2024-03-25T11:02:08;11.40;99.90
56308;DHT22;42217;50.422;7.210;2024-03-25T11:04:34;11.30;99.90
56308;DHT22;42217;50.422;7.210;2024-03-25T11:07:30;11.20;99.90
56308;DHT22;42217;50.422;7.210;2024-03-25T11:10:03;11.00;99.90
56308;DHT22;42217;50.422;7.210;2024-03-25T11:12:40;10.90;99.90
56308;DHT22;42217;50.422;7.210;2024-03-25T11:15:06;10.90;99.90
56308;DHT22;42217;50.422;7.210;2024-03-25T11:17:36;10.90;99.90
56308;DHT22;42217;50.422;7.210;2024-03-25T11:20:12;10.90;99.90
56308;DHT22;42217;50.422;7.210;2024-03-25T11:22:51;10.80;99.90
56308;DHT22;42217;50.422;7.210;2024-03-25T11:25:19;10.90;99.90
56308;DHT22;42217;50.422;7.210;2024-03-25T11:27:46;10.70;99.90
56308;DHT22;42217;50.422;7.210;2024-03-25T11:30:15;10.80;99.90
56308;DHT22;42217;50.422;7.210;2024-03-25T11:32:52;11.00;99.90
56308;DHT22;42217;50.422;7.210;2024-03-25T11:35:18;11.30;99.90
56308;DHT22;42217;50.422;7.210;2024-03-25T11:37:44;11.50;99.90
56308;DHT22;42217;50.422;7.210;2024-03-25T11:40:11;11.90;99.90
56308;DHT22;42217;50.422;7.210;2024-03-25T11:42:41;12.20;99.90
56308;DHT22;42217;50.422;7.210;2024-03-25T11:45:14;12.20;99.90
56308;DHT22;42217;50.422;7.210;2024-03-25T11:47:44;12.00;99.90
56308;DHT22;42217;50.422;7.210;2024-03-25T11:50:14;11.70;99.90
56308;DHT22;42217;50.422;7.210;2024-03-25T11:52:41;11.50;99.90
56308;DHT22;42217;50.422;7.210;2024-03-25T11:55:07;11.20;99.90
56308;DHT22;42217;50.422;7.210;2024-03-25T11:57:37;11.00;99.90
56308;DHT22;42217;50.422;7.210;2024-03-25T12:00:04;11.00;99.90
56308;DHT22;42217;50.422;7.210;2024-03-25T12:02:36;10.90;99.90
56308;DHT22;42217;50.422;7.210;2024-03-25T12:05:03;10.80;99.90
56308;DHT22;42217;50.422;7.210;2024-03-25T12:07:29;10.50;99.90
56308;DHT22;42217;50.422;7.210;2024-03-25T12:09:54;10.40;99.90
56308;DHT22;42217;50.422;7.210;2024-03-25T12:12:38;10.20;99.90
56308;DHT22;42217;50.422;7.210;2024-03-25T12:15:05;10.20;99.90
56308;DHT22;42217;50.422;7.210;2024-03-25T12:17:33;10.40;99.90
56308;DHT22;42217;50.422;7.210;2024-03-25T12:20:09;10.80;99.90
56308;DHT22;42217;50.422;7.210;2024-03-25T12:22:38;11.00;99.90
56308;DHT22;42217;50.422;7.210;2024-03-25T12:25:05;11.50;99.90
56308;DHT22;42217;50.422;7.210;2024-03-25T12:27:32;11.70;99.90
56308;DHT22;42217;50.422;7.210;2024-03-25T12:30:06;11.80;99.90
56308;DHT22;42217;50.422;7.210;2024-03-25T12:34:58;12.10;99.90
56308;DHT22;42217;50.422;7.210;2024-03-25T12:37:26;12.00;99.90
56308;DHT22;42217;50.422;7.210;2024-03-25T12:39:52;11.90;99.90
56308;DHT22;42217;50.422;7.210;2024-03-25T12:42:19;11.70;99.90
56308;DHT22;42217;50.422;7.210;2024-03-25T12:44:45;11.60;99.90
56308;DHT22;42217;50.422;7.210;2024-03-25T12:47:11;11.70;99.90
56308;DHT22;42217;50.422;7.210;2024-03-25T12:49:37;12.10;99.90
56308;DHT22;42217;50.422;7.210;2024-03-25T12:52:05;12.30;99.90
56308;DHT22;42217;50.422;7.210;2024-03-25T12:54:32;12.40;99.90
56308;DHT22;42217;50.422;7.210;2024-03-25T12:56:57;12.30;99.90
56308;DHT22;42217;50.422;7.210;2024-03-25T12:59:23;12.10;99.90
56308;DHT22;42217;50.422;7.210;2024-03-25T13:01:49;12.30;99.90
56308;DHT22;42217;50.422;7.210;2024-03-25T13:04:16;12.30;99.90
56308;DHT22;42217;50.422;7.210;2024-03-25T13:06:42;12.20;99.90
56308;DHT22;42217;50.422;7.210;2024-03-25T13:09:08;12.40;99.50
56308;DHT22;42217;50.422;7.210;2024-03-25T13:11:33;12.70;99.50
56308;DHT22;42217;50.422;7.210;2024-03-25T13:14:00;12.60;99.90
56308;DHT22;42217;50.422;7.210;2024-03-25T13:16:26;12.50;99.10
56308;DHT22;42217;50.422;7.210;2024-03-25T13:18:51;12.60;98.10
56308;DHT22;42217;50.422;7.210;2024-03-25T13:21:17;12.50;98.00
56308;DHT22;42217;50.422;7.210;2024-03-25T13:23:42;12.40;99.10
56308;DHT22;42217;50.422;7.210;2024-03-25T13:26:08;12.50;98.40
56308;DHT22;42217;50.422;7.210;2024-03-25T13:28:34;12.80;99.60
56308;DHT22;42217;50.422;7.210;2024-03-25T13:31:00;12.80;99.10
56308;DHT22;42217;50.422;7.210;2024-03-25T13:33:25;12.90;99.10
56308;DHT22;42217;50.422;7.210;2024-03-25T13:35:51;12.70;98.00
56308;DHT22;42217;50.422;7.210;2024-03-25T13:38:17;12.40;98.10
56308;DHT22;42217;50.422;7.210;2024-03-25T13:40:42;12.60;98.30
56308;DHT22;42217;50.422;7.210;2024-03-25T13:43:08;12.60;97.40
56308;DHT22;42217;50.422;7.210;2024-03-25T13:45:35;12.90;97.60
56308;DHT22;42217;50.422;7.210;2024-03-25T13:48:00;12.90;97.60
56308;DHT22;42217;50.422;7.210;2024-03-25T13:50:26;12.80;96.50
56308;DHT22;42217;50.422;7.210;2024-03-25T13:52:52;12.80;96.30
56308;DHT22;42217;50.422;7.210;2024-03-25T13:55:17;13.50;95.80
56308;DHT22;42217;50.422;7.210;2024-03-25T13:57:44;14.50;96.10
56308;DHT22;42217;50.422;7.210;2024-03-25T14:00:10;16.00;92.30
56308;DHT22;42217;50.422;7.210;2024-03-25T14:02:36;17.00;90.70
56308;DHT22;42217;50.422;7.210;2024-03-25T14:05:04;18.00;90.20
56308;DHT22;42217;50.422;7.210;2024-03-25T14:07:30;18.10;80.70
56308;DHT22;42217;50.422;7.210;2024-03-25T14:09:56;18.60;80.60
56308;DHT22;42217;50.422;7.210;2024-03-25T14:12:21;19.70;75.00
56308;DHT22;42217;50.422;7.210;2024-03-25T14:14:49;19.50;71.60
56308;DHT22;42217;50.422;7.210;2024-03-25T14:17:14;19.50;71.20
56308;DHT22;42217;50.422;7.210;2024-03-25T14:19:40;19.90;68.70
56308;DHT22;42217;50.422;7.210;2024-03-25T14:22:07;20.30;67.70
56308;DHT22;42217;50.422;7.210;2024-03-25T14:24:33;20.80;63.80
56308;DHT22;42217;50.422;7.210;2024-03-25T14:26:58;20.10;66.30
56308;DHT22;42217;50.422;7.210;2024-03-25T14:29:24;19.70;65.00
56308;DHT22;42217;50.422;7.210;2024-03-25T14:31:50;19.90;62.30
56308;DHT22;42217;50.422;7.210;2024-03-25T14:34:15;20.00;62.40
56308;DHT22;42217;50.422;7.210;2024-03-25T14:36:41;20.60;61.00
56308;DHT22;42217;50.422;7.210;2024-03-25T14:39:06;20.90;59.60
56308;DHT22;42217;50.422;7.210;2024-03-25T14:41:40;21.10;59.30
56308;DHT22;42217;50.422;7.210;2024-03-25T14:44:06;21.10;60.60
56308;DHT22;42217;50.422;7.210;2024-03-25T14:46:31;20.80;61.50
56308;DHT22;42217;50.422;7.210;2024-03-25T14:48:57;21.20;59.90
56308;DHT22;42217;50.422;7.210;2024-03-25T14:51:23;22.30;59.00
56308;DHT22;42217;50.422;7.210;2024-03-25T14:53:48;22.20;57.70
56308;DHT22;42217;50.422;7.210;2024-03-25T14:56:14;22.10;57.40
56308;DHT22;42217;50.422;7.210;2024-03-25T14:58:40;21.30;56.90
56308;DHT22;42217;50.422;7.210;2024-03-25T15:01:06;20.70;59.00
56308;DHT22;42217;50.422;7.210;2024-03-25T15:03:31;20.70;57.20
56308;DHT22;42217;50.422;7.210;2024-03-25T15:05:57;20.70;57.90
56308;DHT22;42217;50.422;7.210;2024-03-25T15:08:23;20.00;58.50
56308;DHT22;42217;50.422;7.210;2024-03-25T15:10:48;19.50;58.40
56308;DHT22;42217;50.422;7.210;2024-03-25T15:13:15;19.60;59.20
56308;DHT22;42217;50.422;7.210;2024-03-25T15:15:41;19.90;58.70
56308;DHT22;42217;50.422;7.210;2024-03-25T15:18:08;20.60;58.80
56308;DHT22;42217;50.422;7.210;2024-03-25T15:20:34;21.60;58.80
56308;DHT22;42217;50.422;7.210;2024-03-25T15:23:00;21.90;56.80
56308;DHT22;42217;50.422;7.210;2024-03-25T15:25:26;21.90;57.80
56308;DHT22;42217;50.422;7.210;2024-03-25T15:27:52;21.90;56.80
56308;DHT22;42217;50.422;7.210;2024-03-25T15:30:18;22.20;56.70
56308;DHT22;42217;50.422;7.210;2024-03-25T15:32:44;22.30;56.70
56308;DHT22;42217;50.422;7.210;2024-03-25T15:35:09;21.50;57.10
56308;DHT22;42217;50.422;7.210;2024-03-25T15:37:35;20.50;58.30
56308;DHT22;42217;50.422;7.210;2024-03-25T15:40:01;20.40;59.10
56308;DHT22;42217;50.422;7.210;2024-03-25T15:42:26;20.00;59.80